createdAt,value
2019-04-06T00:00:07.502Z,28.12
2019-04-06T00:02:37.736Z,28.98
2019-04-06T00:05:07.862Z,28.60
2019-04-06T00:07:36.540Z,31.23
2019-04-06T00:10:08.525Z,31.50
2019-04-06T00:12:38.153Z,33.60
2019-04-06T00:15:07.628Z,33.83
2019-04-06T00:17:36.172Z,32.73
2019-04-06T00:20:06.413Z,29.57
2019-04-06T00:22:35.003Z,30.20
2019-04-06T00:25:04.464Z,31.95
2019-04-06T00:27:33.073Z,31.57
2019-04-06T00:30:01.663Z,31.55
2019-04-06T00:32:31.876Z,32.93
2019-04-06T00:35:00.460Z,34.65
2019-04-06T00:37:29.046Z,34.18
2019-04-06T00:39:57.646Z,31.52
2019-04-06T00:42:26.237Z,32.93
2019-04-06T00:44:54.836Z,34.43
2019-04-06T00:47:23.443Z,35.68
2019-04-06T00:49:52.062Z,32.55
2019-04-06T00:52:20.665Z,33.80
2019-04-06T00:54:49.243Z,32.15
2019-04-06T00:57:19.414Z,32.28
2019-04-06T00:59:48.011Z,31.97
2019-04-06T01:02:16.570Z,32.90
2019-04-06T01:04:45.162Z,31.65
2019-04-06T01:07:13.780Z,34.43
2019-04-06T01:09:42.368Z,32.60
2019-04-06T01:12:11.033Z,35.13
2019-04-06T01:14:39.623Z,34.53
2019-04-06T01:17:08.204Z,37.23
2019-04-06T01:19:36.805Z,34.00
2019-04-06T01:22:05.461Z,37.30
2019-04-06T01:24:34.065Z,35.05
2019-04-06T01:27:02.672Z,36.20
2019-04-06T01:29:31.258Z,37.67
2019-04-06T01:31:59.848Z,38.48
2019-04-06T01:34:28.446Z,36.65
2019-04-06T01:36:57.046Z,35.90
2019-04-06T01:39:25.651Z,35.23
2019-04-06T01:41:54.249Z,35.35
2019-04-06T01:44:24.365Z,36.05
2019-04-06T01:46:52.949Z,34.40
2019-04-06T01:49:21.553Z,35.88
2019-04-06T01:51:50.137Z,37.83
2019-04-06T01:54:18.774Z,36.05
2019-04-06T01:56:47.371Z,36.28
2019-04-06T01:59:15.975Z,36.13
2019-04-06T02:01:52.186Z,39.80
2019-04-06T02:04:20.779Z,38.13
2019-04-06T02:06:49.386Z,37.88
2019-04-06T02:09:18.879Z,38.55
2019-04-06T02:11:47.468Z,40.28
2019-04-06T02:14:16.120Z,40.50
2019-04-06T02:16:44.637Z,42.00
2019-04-06T02:19:13.219Z,38.88
2019-04-06T02:21:41.783Z,38.98
2019-04-06T02:24:10.352Z,41.68
2019-04-06T02:26:38.925Z,39.20
2019-04-06T02:29:07.488Z,37.85
2019-04-06T02:31:37.699Z,40.52
2019-04-06T02:34:13.963Z,38.98
2019-04-06T02:36:44.128Z,39.00
2019-04-06T02:39:30.762Z,41.95
2019-04-06T02:42:05.091Z,40.35
2019-04-06T02:44:33.732Z,40.83
2019-04-06T02:47:02.235Z,41.65
2019-04-06T02:49:30.811Z,43.75
2019-04-06T02:51:59.384Z,40.33
2019-04-06T02:54:27.957Z,41.70
2019-04-06T02:56:56.539Z,43.05
2019-04-06T02:59:25.177Z,41.33
2019-04-06T03:01:53.760Z,42.45
2019-04-06T03:04:22.390Z,42.98
2019-04-06T03:06:51.239Z,44.73
2019-04-06T03:09:19.930Z,43.23
2019-04-06T03:11:48.540Z,43.70
2019-04-06T03:14:17.232Z,44.27
2019-04-06T03:16:45.798Z,44.30
2019-04-06T03:19:14.377Z,44.20
2019-04-06T03:21:42.940Z,44.23
2019-04-06T03:24:11.527Z,43.28
2019-04-06T03:26:43.955Z,44.40
2019-04-06T03:29:12.523Z,46.30
2019-04-06T03:31:41.111Z,45.67
2019-04-06T03:34:09.823Z,48.90
2019-04-06T03:36:38.532Z,47.53
2019-04-06T03:39:08.107Z,47.00
2019-04-06T03:41:36.828Z,47.23
2019-04-06T03:44:05.408Z,48.13
2019-04-06T03:46:33.969Z,45.55
2019-04-06T03:49:02.555Z,47.45
2019-04-06T03:51:31.083Z,48.83
2019-04-06T03:53:59.564Z,46.75
2019-04-06T03:56:28.130Z,47.65
2019-04-06T03:58:56.708Z,45.35
2019-04-06T04:01:25.250Z,48.85
2019-04-06T04:03:53.746Z,47.30
2019-04-06T04:06:22.187Z,47.15
2019-04-06T04:08:50.630Z,44.38
2019-04-06T04:11:19.097Z,46.98
2019-04-06T04:13:47.536Z,46.90
2019-04-06T04:16:15.981Z,48.15
2019-04-06T04:18:44.561Z,45.83
2019-04-06T04:21:14.064Z,44.45
2019-04-06T04:23:43.129Z,47.00
2019-04-06T04:26:11.690Z,47.65
2019-04-06T04:28:59.476Z,47.35
2019-04-06T04:31:27.911Z,47.25
2019-04-06T04:33:56.378Z,48.68
2019-04-06T04:36:24.883Z,46.77
2019-04-06T04:38:53.658Z,47.88
2019-04-06T04:41:22.335Z,46.70
2019-04-06T04:43:50.874Z,46.53
2019-04-06T04:46:19.328Z,48.17
2019-04-06T04:48:47.830Z,47.45
2019-04-06T04:51:16.276Z,48.23
2019-04-06T04:53:44.833Z,46.95
2019-04-06T04:56:13.269Z,46.92
2019-04-06T04:58:41.795Z,46.58
2019-04-06T05:01:12.785Z,46.42
2019-04-06T05:03:41.359Z,48.52
2019-04-06T05:06:09.804Z,45.67
2019-04-06T05:08:44.377Z,48.10
2019-04-06T05:11:12.828Z,46.85
2019-04-06T05:13:42.914Z,45.95
2019-04-06T05:16:14.669Z,47.53
2019-04-06T05:18:43.615Z,47.75
2019-04-06T05:21:12.914Z,44.42
2019-04-06T05:23:41.523Z,45.45
2019-04-06T05:26:09.971Z,45.95
2019-04-06T05:28:38.417Z,46.85
2019-04-06T05:31:06.931Z,49.45
2019-04-06T05:33:35.389Z,47.62
2019-04-06T05:36:04.350Z,48.30
2019-04-06T05:38:34.240Z,50.08
2019-04-06T05:41:04.939Z,48.55
2019-04-06T05:43:33.386Z,50.15
2019-04-06T05:46:02.393Z,51.25
2019-04-06T05:48:31.050Z,49.53
2019-04-06T05:51:02.706Z,49.70
2019-04-06T05:53:31.192Z,52.78
2019-04-06T05:55:59.633Z,51.65
2019-04-06T05:58:28.237Z,50.98
2019-04-06T06:00:56.848Z,53.63
2019-04-06T06:03:25.416Z,51.45
2019-04-06T06:05:53.872Z,53.83
2019-04-06T06:08:22.395Z,53.42
2019-04-06T06:10:52.473Z,55.05
2019-04-06T06:13:20.924Z,52.23
2019-04-06T06:15:49.958Z,58.33
2019-04-06T06:18:26.556Z,57.65
2019-04-06T06:20:48.714Z,54.63
2019-04-06T06:23:17.200Z,54.60
2019-04-06T06:25:45.852Z,55.63
2019-04-06T06:28:16.802Z,53.63
2019-04-06T06:30:45.504Z,55.88
2019-04-06T06:33:13.942Z,55.98
2019-04-06T06:35:42.397Z,55.00
2019-04-06T06:38:13.442Z,56.55
2019-04-06T06:40:41.973Z,54.53
2019-04-06T06:43:10.428Z,56.83
2019-04-06T06:45:39.068Z,58.55
2019-04-06T06:48:07.641Z,58.45
2019-04-06T06:50:36.146Z,57.38
2019-04-06T06:53:05.552Z,57.27
2019-04-06T06:55:36.151Z,59.77
2019-04-06T06:58:04.607Z,58.10
2019-04-06T07:00:33.067Z,58.63
2019-04-06T07:03:01.508Z,58.65
2019-04-06T07:05:29.968Z,58.60
2019-04-06T07:07:58.435Z,59.40
2019-04-06T07:10:27.155Z,57.38
2019-04-06T07:12:55.761Z,57.13
2019-04-06T07:15:24.215Z,58.73
2019-04-06T07:17:52.646Z,57.15
2019-04-06T07:20:21.148Z,57.23
2019-04-06T07:22:49.757Z,57.33
2019-04-06T07:25:18.294Z,57.67
2019-04-06T07:27:46.864Z,60.10
2019-04-06T07:30:15.758Z,59.15
2019-04-06T07:32:44.194Z,59.58
2019-04-06T07:35:13.014Z,57.80
2019-04-06T07:37:41.552Z,58.13
2019-04-06T07:40:11.366Z,58.15
2019-04-06T07:42:39.823Z,56.92
2019-04-06T07:45:08.727Z,59.18
2019-04-06T07:47:37.239Z,55.90
2019-04-06T07:50:07.044Z,59.30
2019-04-06T07:52:38.456Z,58.73
2019-04-06T07:55:08.058Z,56.08
2019-04-06T07:57:36.563Z,59.93
2019-04-06T08:00:08.747Z,58.50
2019-04-06T08:02:37.223Z,55.75
2019-04-06T08:05:06.523Z,56.35
2019-04-06T08:07:34.967Z,59.80
2019-04-06T08:10:03.587Z,57.13
2019-04-06T08:12:32.159Z,55.85
2019-04-06T08:15:00.670Z,54.18
2019-04-06T08:17:29.111Z,54.27
2019-04-06T08:19:57.560Z,56.45
2019-04-06T08:22:26.006Z,56.20
2019-04-06T08:24:54.690Z,55.15
2019-04-06T08:27:29.193Z,53.25
2019-04-06T08:29:57.792Z,57.13
2019-04-06T08:32:26.597Z,54.73
2019-04-06T08:34:55.034Z,55.48
2019-04-06T08:37:23.499Z,56.83
2019-04-06T08:39:52.095Z,57.38
2019-04-06T08:42:20.583Z,54.48
2019-04-06T08:44:49.500Z,56.05
2019-04-06T08:47:17.938Z,56.15
2019-04-06T08:49:46.399Z,57.30
2019-04-06T08:52:14.848Z,56.23
2019-04-06T08:54:43.314Z,55.85
2019-04-06T08:57:11.824Z,54.25
2019-04-06T08:59:40.325Z,55.33
2019-04-06T09:02:08.838Z,55.55
2019-04-06T09:04:37.281Z,53.52
2019-04-06T09:07:06.170Z,55.90
2019-04-06T09:09:34.731Z,54.30
2019-04-06T09:12:03.189Z,52.03
2019-04-06T09:14:31.656Z,55.78
2019-04-06T09:17:00.370Z,53.08
2019-04-06T09:19:29.039Z,54.25
2019-04-06T09:21:57.485Z,49.55
2019-04-06T09:24:26.013Z,53.75
2019-04-06T09:26:54.463Z,51.23
2019-04-06T09:29:24.447Z,51.02
2019-04-06T09:31:53.098Z,50.83
2019-04-06T09:34:21.540Z,52.05
2019-04-06T09:36:50.097Z,49.38
2019-04-06T09:39:18.547Z,51.02
2019-04-06T09:41:47.013Z,49.20
2019-04-06T09:44:18.107Z,46.95
2019-04-06T09:47:06.332Z,47.85
2019-04-06T09:49:45.295Z,45.33
2019-04-06T09:52:31.571Z,46.02
2019-04-06T09:55:13.549Z,46.73
2019-04-06T09:57:49.218Z,44.53
2019-04-06T10:00:35.906Z,43.15
2019-04-06T10:03:17.864Z,46.25
2019-04-06T10:05:55.147Z,44.80
2019-04-06T10:08:25.581Z,45.80
2019-04-06T10:10:55.879Z,42.65
2019-04-06T10:13:26.006Z,44.27
2019-04-06T10:15:56.093Z,43.38
2019-04-06T10:18:26.192Z,40.60
2019-04-06T10:20:58.521Z,42.95
2019-04-06T10:23:43.898Z,38.78
2019-04-06T10:28:49.297Z,40.03
2019-04-06T10:31:21.879Z,39.60
2019-04-06T10:34:03.735Z,40.92
2019-04-06T10:36:45.572Z,38.08
2019-04-06T10:39:15.730Z,42.85
2019-04-06T10:41:49.400Z,39.85
2019-04-06T10:44:35.736Z,39.55
2019-04-06T10:47:11.698Z,42.15
2019-04-06T10:49:44.407Z,38.23
2019-04-06T10:52:32.699Z,40.33
2019-04-06T10:55:02.850Z,40.60
2019-04-06T10:57:49.309Z,41.70
2019-04-06T11:00:19.834Z,42.23
2019-04-06T11:02:52.587Z,40.98
2019-04-06T11:05:39.055Z,43.25
2019-04-06T11:08:18.814Z,42.80
2019-04-06T11:10:48.998Z,44.03
2019-04-06T11:13:30.977Z,42.75
2019-04-06T11:16:09.657Z,42.08
2019-04-06T11:18:45.646Z,43.08
2019-04-06T11:21:31.934Z,44.30
2019-04-06T11:24:10.857Z,42.15
2019-04-06T11:26:46.575Z,41.42
2019-04-06T11:29:16.672Z,42.80
2019-04-06T11:31:52.431Z,44.27
2019-04-06T11:34:31.731Z,45.15
2019-04-06T11:37:14.042Z,43.55
2019-04-06T11:39:47.074Z,42.88
2019-04-06T11:42:20.232Z,43.52
2019-04-06T11:45:05.323Z,42.13
2019-04-06T11:47:35.427Z,43.35
2019-04-06T11:50:06.961Z,44.20
2019-04-06T11:52:46.155Z,44.27
2019-04-06T11:55:32.599Z,42.17
2019-04-06T11:58:02.683Z,43.05
2019-04-06T12:00:32.827Z,43.60
2019-04-06T12:03:02.913Z,44.60
2019-04-06T12:05:51.487Z,45.17
2019-04-06T12:08:31.902Z,42.62
2019-04-06T12:11:14.201Z,43.00
2019-04-06T12:13:47.538Z,42.60
2019-04-06T12:16:40.342Z,41.98
2019-04-06T12:19:25.309Z,43.33
2019-04-06T12:22:00.853Z,42.90
2019-04-06T12:24:31.195Z,43.90
2019-04-06T12:27:13.307Z,43.25
2019-04-06T12:29:49.082Z,42.55
2019-04-06T12:32:31.232Z,46.80
2019-04-06T12:35:10.139Z,45.67
2019-04-06T12:37:56.309Z,47.38
2019-04-06T12:40:29.025Z,46.05
2019-04-06T12:42:59.120Z,45.95
2019-04-06T12:45:34.948Z,45.20
2019-04-06T12:48:14.058Z,44.00
2019-04-06T12:50:49.971Z,44.42
2019-04-06T12:53:29.012Z,44.67
2019-04-06T12:56:01.779Z,44.58
2019-04-06T12:58:37.749Z,46.40
2019-04-06T13:01:22.896Z,44.08
2019-04-06T13:04:09.306Z,45.60
2019-04-06T13:06:39.397Z,45.45
2019-04-06T13:09:12.319Z,46.55
2019-04-06T13:11:58.610Z,43.90
2019-04-06T13:14:28.687Z,45.98
2019-04-06T13:17:30.143Z,47.15
2019-04-06T13:20:18.489Z,45.08
2019-04-06T13:23:02.131Z,44.73
2019-04-06T13:25:38.636Z,46.63
2019-04-06T13:28:08.729Z,47.78
2019-04-06T13:30:38.840Z,45.90
2019-04-06T13:33:18.223Z,46.75
2019-04-06T13:35:51.002Z,46.92
2019-04-06T13:38:27.725Z,45.80
2019-04-06T13:41:12.894Z,49.18
2019-04-06T13:43:43.278Z,46.23
2019-04-06T13:46:29.826Z,44.80
2019-04-06T13:49:14.867Z,47.17
2019-04-06T13:51:51.570Z,44.53
2019-04-06T13:54:27.882Z,44.60
2019-04-06T13:56:58.104Z,46.45
2019-04-06T13:59:28.187Z,45.52
2019-04-06T14:02:14.700Z,46.10
2019-04-06T14:04:45.351Z,46.50
2019-04-06T14:07:21.360Z,45.35
2019-04-06T14:09:54.524Z,44.05
2019-04-06T14:12:41.017Z,46.77
2019-04-06T14:15:27.251Z,45.58
2019-04-06T14:18:13.627Z,46.35
2019-04-06T14:20:52.626Z,48.33
2019-04-06T14:23:28.810Z,46.48
2019-04-06T14:26:01.434Z,46.77
2019-04-06T14:28:32.464Z,47.17
2019-04-06T14:31:07.714Z,47.38
2019-04-06T14:33:40.776Z,47.38
2019-04-06T14:36:27.396Z,45.12
2019-04-06T14:38:57.588Z,47.03
2019-04-06T14:41:36.490Z,46.00
2019-04-06T14:44:06.655Z,45.58
2019-04-06T14:46:55.236Z,47.60
2019-04-06T14:49:41.626Z,48.20
2019-04-06T14:52:28.265Z,48.02
2019-04-06T14:55:04.621Z,47.00
2019-04-06T14:57:44.383Z,45.92
2019-04-06T15:00:20.832Z,46.55
2019-04-06T15:03:03.112Z,46.83
2019-04-06T15:05:51.876Z,45.48
2019-04-06T15:08:24.095Z,46.58
2019-04-06T15:11:06.186Z,46.10
2019-04-06T15:13:41.282Z,45.80
2019-04-06T15:16:11.370Z,48.85
2019-04-06T15:18:50.154Z,45.70
2019-04-06T15:21:20.285Z,46.75
2019-04-06T15:24:02.517Z,46.68
2019-04-06T15:26:32.706Z,45.15
2019-04-06T15:29:19.720Z,46.58
2019-04-06T15:31:59.804Z,47.10
2019-04-06T15:34:29.902Z,46.25
2019-04-06T15:37:16.030Z,46.92
2019-04-06T15:39:46.106Z,46.10
2019-04-06T15:42:22.062Z,47.23
2019-04-06T15:45:04.189Z,47.10
2019-04-06T15:47:36.941Z,48.23
2019-04-06T15:52:53.519Z,46.70
2019-04-06T15:55:29.434Z,46.88
2019-04-06T15:58:05.296Z,47.05
2019-04-06T16:00:50.601Z,47.05
2019-04-06T16:03:23.596Z,49.83
2019-04-06T16:06:11.623Z,47.95
2019-04-06T16:08:47.373Z,49.05
2019-04-06T16:11:19.921Z,48.08
2019-04-06T16:13:55.838Z,47.85
2019-04-06T16:16:28.814Z,46.77
2019-04-06T16:19:08.137Z,47.45
2019-04-06T16:21:50.570Z,46.48
2019-04-06T16:24:21.918Z,45.92
2019-04-06T16:27:09.697Z,47.17
2019-04-06T16:29:52.195Z,47.00
2019-04-06T16:32:33.254Z,47.23
2019-04-06T16:35:05.742Z,45.78
2019-04-06T16:37:51.437Z,47.55
2019-04-06T16:40:21.598Z,46.25
2019-04-06T16:43:04.092Z,45.55
2019-04-06T16:45:40.913Z,45.92
2019-04-06T16:48:23.087Z,47.65
2019-04-06T16:51:09.470Z,47.45
2019-04-06T16:53:39.633Z,46.80
2019-04-06T16:56:24.599Z,46.23
2019-04-06T16:59:01.056Z,46.10
2019-04-06T17:01:31.252Z,44.77
2019-04-06T17:04:01.351Z,47.38
2019-04-06T17:06:34.079Z,47.48
2019-04-06T17:09:16.478Z,44.65
2019-04-06T17:11:46.730Z,47.83
2019-04-06T17:14:33.369Z,49.03
2019-04-06T17:17:06.327Z,47.88
2019-04-06T17:19:54.323Z,46.10
2019-04-06T17:22:24.557Z,46.63
2019-04-06T17:25:10.848Z,48.48
2019-04-06T17:27:57.419Z,47.35
2019-04-06T17:30:27.504Z,48.08
2019-04-06T17:33:00.423Z,48.68
2019-04-06T17:35:36.595Z,48.13
2019-04-06T17:38:06.677Z,45.70
2019-04-06T17:40:45.588Z,48.85
2019-04-06T17:43:15.748Z,47.83
2019-04-06T17:46:02.341Z,48.65
2019-04-06T17:48:48.818Z,51.60
2019-04-06T17:51:19.095Z,52.20
2019-04-06T17:53:53.829Z,50.75
2019-04-06T17:56:23.906Z,49.75
2019-04-06T17:59:02.976Z,49.67
2019-04-06T18:01:42.301Z,51.85
2019-04-06T18:04:13.107Z,53.48
2019-04-06T18:06:48.775Z,51.45
2019-04-06T18:09:24.738Z,53.05
2019-04-06T18:11:57.675Z,54.80
2019-04-06T18:14:26.262Z,54.18
2019-04-06T18:16:55.454Z,54.95
2019-04-06T18:19:24.039Z,50.98
2019-04-06T18:21:52.845Z,50.17
2019-04-06T18:24:21.441Z,55.20
2019-04-06T18:26:49.932Z,54.23
2019-04-06T18:29:18.459Z,55.63
2019-04-06T18:31:49.050Z,54.15
2019-04-06T18:34:18.330Z,52.70
2019-04-06T18:36:51.270Z,50.67
2019-04-06T18:39:22.959Z,52.93
2019-04-06T18:41:59.898Z,51.60
2019-04-06T18:44:28.371Z,50.65
2019-04-06T18:46:57.260Z,50.95
2019-04-06T18:49:26.033Z,49.95
2019-04-06T18:51:54.582Z,52.73
2019-04-06T18:54:23.182Z,52.50
2019-04-06T18:56:51.759Z,51.23
2019-04-06T18:59:20.625Z,49.67
2019-04-06T19:01:49.577Z,47.62
2019-04-06T19:04:18.086Z,49.30
2019-04-06T19:06:46.654Z,51.53
2019-04-06T19:09:22.871Z,50.15
2019-04-06T19:11:54.400Z,49.65
2019-04-06T19:14:15.917Z,49.90
2019-04-06T19:16:45.958Z,51.00
2019-04-06T19:19:14.426Z,51.42
2019-04-06T19:21:43.237Z,52.75
2019-04-06T19:24:12.195Z,52.73
2019-04-06T19:27:00.086Z,50.80
2019-04-06T19:29:29.298Z,55.03
2019-04-06T19:31:58.764Z,53.48
2019-04-06T19:34:27.427Z,52.88
2019-04-06T19:36:55.865Z,52.33
2019-04-06T19:39:26.357Z,52.70
2019-04-06T19:41:54.944Z,55.67
2019-04-06T19:44:23.458Z,57.80
2019-04-06T19:46:54.840Z,64.97
2019-04-06T19:49:23.383Z,99.58
2019-04-06T19:51:52.212Z,72.75
2019-04-06T19:54:21.370Z,67.37
2019-04-06T19:56:49.914Z,71.22
2019-04-06T19:59:18.639Z,68.25
2019-04-06T20:01:47.295Z,142.03
2019-04-06T20:04:16.082Z,234.03
2019-04-06T20:06:44.661Z,153.90
2019-04-06T20:09:13.451Z,335.45
2019-04-06T20:11:42.179Z,132.07
2019-04-06T20:14:12.351Z,82.17
2019-04-06T20:16:40.840Z,74.65
2019-04-06T20:19:09.892Z,63.45
2019-04-06T20:21:41.119Z,62.27
2019-04-06T20:24:09.674Z,68.05
2019-04-06T20:26:38.767Z,71.50
2019-04-06T20:29:07.215Z,80.40
2019-04-06T20:31:37.123Z,193.32
2019-04-06T20:34:06.178Z,161.30
2019-04-06T20:36:35.166Z,169.60
2019-04-06T20:39:06.036Z,151.22
2019-04-06T20:41:34.485Z,154.38
2019-04-06T20:44:02.997Z,121.80
2019-04-06T20:46:31.887Z,105.90
2019-04-06T20:49:01.091Z,115.85
2019-04-06T20:51:30.036Z,95.12
2019-04-06T20:53:58.702Z,84.97
2019-04-06T20:56:29.920Z,75.62
2019-04-06T20:58:58.662Z,75.20
2019-04-06T21:01:27.666Z,71.77
2019-04-06T21:04:01.029Z,79.15
2019-04-06T21:06:26.867Z,79.00
2019-04-06T21:08:55.422Z,78.83
2019-04-06T21:11:24.434Z,77.90
2019-04-06T21:13:53.039Z,79.20
2019-04-06T21:16:22.963Z,79.47
2019-04-06T21:18:51.408Z,77.15
2019-04-06T21:21:22.302Z,76.77
2019-04-06T21:23:52.903Z,82.82
2019-04-06T21:26:21.570Z,81.95
2019-04-06T21:28:53.392Z,80.10
2019-04-06T21:31:23.534Z,82.65
2019-04-06T21:33:52.531Z,79.40
2019-04-06T21:36:22.047Z,80.40
2019-04-06T21:38:50.473Z,81.00
2019-04-06T21:41:19.468Z,81.02
2019-04-06T21:43:48.067Z,77.22
2019-04-06T21:46:19.279Z,80.60
2019-04-06T21:48:48.042Z,80.67
2019-04-06T21:51:16.787Z,80.85
2019-04-06T21:53:45.267Z,81.45
2019-04-06T21:56:15.636Z,80.22
2019-04-06T21:58:44.694Z,76.77
2019-04-06T22:01:15.376Z,79.32
2019-04-06T22:03:43.955Z,81.40
2019-04-06T22:06:14.054Z,74.03
2019-04-06T22:08:42.528Z,78.35
2019-04-06T22:11:10.988Z,77.62
2019-04-06T22:13:39.427Z,85.55
2019-04-06T22:16:08.487Z,76.75
2019-04-06T22:18:37.927Z,76.10
2019-04-06T22:21:06.917Z,80.12
2019-04-06T22:23:42.318Z,76.30
2019-04-06T22:26:06.043Z,81.10
2019-04-06T22:28:35.051Z,79.50
2019-04-06T22:31:05.445Z,83.58
2019-04-06T22:33:34.373Z,84.67
2019-04-06T22:36:03.278Z,89.50
2019-04-06T22:38:31.928Z,85.00
2019-04-06T22:41:03.589Z,87.10
2019-04-06T22:43:32.018Z,85.55
2019-04-06T22:46:00.936Z,91.57
2019-04-06T22:48:31.729Z,105.78
2019-04-06T22:51:00.229Z,94.58
2019-04-06T22:53:29.285Z,95.60
2019-04-06T22:55:58.513Z,83.33
2019-04-06T22:58:28.873Z,73.52
2019-04-06T23:00:59.100Z,83.78
2019-04-06T23:03:45.598Z,88.05
2019-04-06T23:06:32.496Z,78.60
2019-04-06T23:09:00.960Z,96.95
2019-04-06T23:11:29.860Z,88.17
2019-04-06T23:13:59.959Z,91.12
2019-04-06T23:16:28.647Z,90.53
2019-04-06T23:18:57.260Z,97.90
2019-04-06T23:21:25.907Z,83.80
2019-04-06T23:23:54.452Z,77.20
2019-04-06T23:26:22.893Z,81.40
2019-04-06T23:28:52.883Z,75.87
2019-04-06T23:31:21.330Z,66.50
2019-04-06T23:33:49.783Z,60.33
2019-04-06T23:36:18.229Z,55.55
2019-04-06T23:38:46.675Z,54.10
2019-04-06T23:41:15.135Z,55.17
2019-04-06T23:43:43.850Z,52.17
2019-04-06T23:46:12.988Z,53.98
2019-04-06T23:48:41.790Z,54.80
2019-04-06T23:51:10.688Z,54.00
2019-04-06T23:53:40.942Z,55.45
2019-04-06T23:56:09.450Z,53.05
2019-04-06T23:58:38.007Z,53.30
